PST,Max TemperatureF,Mean TemperatureF,Min TemperatureF,Max Dew PointF,MeanDew PointF,Min DewpointF,Max Humidity, Mean Humidity, Min Humidity, Max Sea Level PressureIn, Mean Sea Level PressureIn, Min Sea Level PressureIn, Max VisibilityMiles, Mean VisibilityMiles, Min VisibilityMiles, Max Wind SpeedMPH, Mean Wind SpeedMPH, Max Gust SpeedMPH,PrecipitationIn, CloudCover, Events, WindDirDegrees
2013-11-1,50,36,22,39,31,19,100,86,71,30.34,30.23,30.04,10,6,0,7,1,8,0.00,5,Fog,42
2013-11-2,51,44,37,45,37,29,93,73,53,30.01,29.69,29.56,10,8,2,30,12,37,0.52,7,Rain,169
2013-11-3,43,35,26,34,29,26,96,75,53,30.03,29.90,29.78,10,8,2,17,6,21,0.01,7,Snow,192
2013-11-4,36,29,21,28,26,19,100,85,70,30.23,30.10,29.97,10,10,6,7,1,10,0.00,7,,146
2013-11-5,35,30,24,32,30,23,96,93,89,30.24,30.16,30.10,10,3,1,6,1,7,0.10,8,Snow,43
2013-11-6,36,34,31,32,31,30,100,91,82,30.42,30.32,30.18,10,5,0,13,5,16,0.00,8,Fog,14
2013-11-7,41,38,34,38,35,30,100,91,82,30.27,29.90,29.74,10,5,2,16,8,23,0.69,8,Rain,25
2013-11-8,48,37,26,37,32,24,100,78,56,30.20,30.05,29.90,10,8,0,18,7,23,T,5,Fog,186
2013-11-9,48,38,27,37,34,27,100,80,60,30.26,30.20,30.16,10,9,4,12,6,28,0.03,6,Rain,31
2013-11-10,44,41,37,38,36,34,92,86,79,30.30,30.21,30.16,10,10,10,12,6,16,0.02,8,Rain,16
2013-11-11,50,44,37,38,36,34,85,73,61,30.40,30.34,30.28,10,10,10,21,12,28,0.00,2,,27
2013-11-12,45,41,36,39,36,33,100,85,70,30.38,30.33,30.27,10,8,1,16,4,20,T,5,,128
2013-11-13,45,40,34,41,39,33,100,88,76,30.38,30.34,30.27,10,5,0,13,5,15,0.01,8,Fog,168
2013-11-14,46,38,29,38,35,29,100,85,70,30.27,30.06,29.92,10,6,0,9,2,13,0.00,7,Fog,187
2013-11-15,38,35,32,36,33,30,100,91,82,29.92,29.63,29.29,10,5,1,17,9,89,0.45,8,Rain-Snow,183
2013-11-16,43,35,27,36,32,26,100,77,53,29.67,29.33,29.17,10,8,2,17,4,23,0.11,7,Rain-Snow,195
2013-11-17,44,37,29,37,31,25,92,81,70,29.94,29.85,29.68,10,10,10,21,9,25,0.02,6,,175
2013-11-18,47,43,38,40,35,33,89,75,60,29.93,29.83,29.65,10,9,4,15,8,20,0.57,7,Rain,167
2013-11-19,52,44,35,42,36,13,89,72,55,29.82,29.63,29.56,10,10,6,24,11,30,0.07,6,Rain,212
2013-11-20,36,24,11,15,6,2,70,48,26,30.51,30.25,29.86,10,10,10,18,7,23,0.00,1,,318
2013-11-21,32,22,11,16,9,6,84,70,55,30.71,30.62,30.52,10,10,10,9,2,,0.00,0,,19
2013-11-22,36,23,9,15,11,5,84,61,38,30.85,30.77,30.66,10,10,7,9,3,12,0.00,0,,21
2013-11-23,39,28,17,18,16,13,84,62,40,30.67,30.55,30.41,10,10,10,13,3,16,0.00,0,,8
2013-11-24,40,27,13,23,18,10,88,68,48,30.43,30.39,30.35,10,10,10,6,1,8,0.00,1,,258
2013-11-25,42,30,18,25,22,17,92,72,51,30.51,30.46,30.42,10,10,10,7,3,9,0.00,0,,9
2013-11-26,40,29,17,26,22,16,92,76,59,30.41,30.33,30.25,10,10,5,7,1,9,0.00,0,,12
2013-11-27,42,29,15,28,23,15,92,73,53,30.27,30.22,30.17,10,10,7,9,4,12,0.00,1,,12
2013-11-28,38,27,16,27,21,14,100,82,64,30.28,30.22,30.13,10,8,1,7,1,8,0.00,0,,25
2013-11-29,31,24,17,29,23,15,92,88,84,30.35,30.27,30.21,10,8,0,6,1,6,0.04,7,Fog-Snow,68
2013-11-30,34,32,30,32,30,28,92,91,89,30.34,30.27,30.14,5,3,1,9,1,10,0.03,8,Snow,90